createdAt,value
2018-11-26T00:00:50.394Z,89.79
2018-11-26T00:03:20.021Z,89.12
2018-11-26T00:05:49.951Z,88.88
2018-11-26T00:08:28.821Z,88.40
2018-11-26T00:11:28.967Z,88.50
2018-11-26T00:13:57.869Z,89.06
2018-11-26T00:16:27.486Z,89.22
2018-11-26T00:18:57.379Z,89.08
2018-11-26T00:21:26.424Z,88.35
2018-11-26T00:23:55.926Z,88.38
2018-11-26T00:26:25.044Z,89.13
2018-11-26T00:28:54.501Z,89.32
2018-11-26T00:31:23.914Z,89.06
2018-11-26T00:33:53.294Z,88.77
2018-11-26T00:36:22.334Z,88.29
2018-11-26T00:38:52.536Z,88.82
2018-11-26T00:41:21.904Z,89.37
2018-11-26T00:43:51.247Z,88.89
2018-11-26T00:46:20.829Z,89.74
2018-11-26T00:48:50.330Z,89.48
2018-11-26T00:51:19.484Z,89.04
2018-11-26T00:53:48.476Z,90.62
2018-11-26T00:56:17.192Z,90.03
2018-11-26T00:58:46.271Z,89.92
2018-11-26T01:01:15.373Z,90.81
2018-11-26T01:03:44.093Z,90.37
2018-11-26T01:06:13.135Z,92.00
2018-11-26T01:08:41.896Z,92.12
2018-11-26T01:11:10.800Z,92.86
2018-11-26T01:13:39.882Z,92.69
2018-11-26T01:16:08.899Z,92.64
2018-11-26T01:18:38.211Z,92.66
2018-11-26T01:21:07.709Z,92.92
2018-11-26T01:23:36.406Z,92.92
2018-11-26T01:26:05.523Z,92.89
2018-11-26T01:28:34.614Z,92.72
2018-11-26T01:31:04.054Z,92.62
2018-11-26T01:33:34.593Z,92.20
2018-11-26T01:36:04.021Z,93.30
2018-11-26T01:38:33.019Z,92.71
2018-11-26T01:41:02.129Z,93.10
2018-11-26T01:43:31.353Z,92.16
2018-11-26T01:46:01.449Z,92.38
2018-11-26T01:48:31.472Z,92.01
2018-11-26T01:51:01.113Z,91.18
2018-11-26T01:53:30.376Z,90.91
2018-11-26T01:55:59.517Z,91.54
2018-11-26T01:58:29.020Z,91.43
2018-11-26T02:00:57.722Z,91.04
2018-11-26T02:03:27.243Z,91.94
2018-11-26T02:05:56.058Z,91.65
2018-11-26T02:08:25.746Z,92.23
2018-11-26T02:10:54.963Z,91.79
2018-11-26T02:13:23.660Z,92.57
2018-11-26T02:15:52.390Z,92.30
2018-11-26T02:18:21.353Z,92.71
2018-11-26T02:20:50.390Z,93.09
2018-11-26T02:23:19.178Z,92.27
2018-11-26T02:25:47.896Z,92.60
2018-11-26T02:28:17.150Z,92.06
2018-11-26T02:30:45.859Z,92.01
2018-11-26T02:33:15.599Z,91.30
2018-11-26T02:35:44.688Z,91.36
2018-11-26T02:38:13.758Z,92.19
2018-11-26T02:40:42.780Z,92.79
2018-11-26T02:43:12.152Z,92.73
2018-11-26T02:45:40.874Z,93.26
2018-11-26T02:48:10.545Z,93.28
2018-11-26T02:50:39.929Z,93.31
2018-11-26T02:53:09.320Z,93.28
2018-11-26T02:55:38.981Z,93.10
2018-11-26T02:58:08.022Z,92.24
2018-11-26T03:00:37.440Z,92.32
2018-11-26T03:03:07.067Z,91.38
2018-11-26T03:05:36.148Z,92.49
2018-11-26T03:08:05.297Z,92.84
2018-11-26T03:10:34.791Z,92.61
2018-11-26T03:13:03.861Z,92.34
2018-11-26T03:15:32.828Z,92.20
2018-11-26T03:18:02.223Z,91.98
2018-11-26T03:20:31.227Z,91.81
2018-11-26T03:23:00.235Z,92.15
2018-11-26T03:25:28.949Z,93.27
2018-11-26T03:27:58.021Z,92.06
2018-11-26T03:30:27.032Z,91.39
2018-11-26T03:32:56.007Z,91.03
2018-11-26T03:35:25.016Z,91.36
2018-11-26T03:37:53.996Z,91.90
2018-11-26T03:40:23.371Z,92.10
2018-11-26T03:42:52.193Z,92.60
2018-11-26T03:45:21.667Z,92.24
2018-11-26T03:47:54.638Z,91.88
2018-11-26T03:50:24.228Z,91.53
2018-11-26T03:52:53.731Z,92.18
2018-11-26T03:55:23.827Z,92.49
2018-11-26T03:57:52.850Z,93.39
2018-11-26T04:00:21.919Z,93.39
2018-11-26T04:02:51.502Z,93.84
2018-11-26T04:05:20.374Z,93.54
2018-11-26T04:07:49.726Z,94.07
2018-11-26T04:10:18.430Z,94.15
2018-11-26T04:12:48.667Z,94.37
2018-11-26T04:15:18.170Z,94.42
2018-11-26T04:17:47.777Z,93.99
2018-11-26T04:20:16.903Z,93.78
2018-11-26T04:22:46.516Z,93.43
2018-11-26T04:25:15.927Z,93.97
2018-11-26T04:27:45.570Z,93.77
2018-11-26T04:30:15.170Z,94.34
2018-11-26T04:32:44.607Z,93.79
2018-11-26T04:35:13.651Z,92.99
2018-11-26T04:37:42.774Z,93.79
2018-11-26T04:40:11.943Z,93.31
2018-11-26T04:42:41.094Z,92.84
2018-11-26T04:45:10.808Z,93.32
2018-11-26T04:47:40.227Z,92.25
2018-11-26T04:50:11.635Z,92.47
2018-11-26T04:52:40.533Z,92.68
2018-11-26T04:55:12.166Z,92.72
2018-11-26T04:57:42.788Z,92.08
2018-11-26T05:00:13.297Z,92.49
2018-11-26T05:02:42.053Z,92.32
2018-11-26T05:05:11.973Z,92.79
2018-11-26T05:07:40.985Z,92.22
2018-11-26T05:10:11.290Z,92.60
2018-11-26T05:12:40.348Z,92.53
2018-11-26T05:15:13.402Z,92.32
2018-11-26T05:17:42.485Z,91.55
2018-11-26T05:20:12.242Z,91.23
2018-11-26T05:22:40.955Z,90.98
2018-11-26T05:25:11.767Z,91.32
2018-11-26T05:27:40.838Z,92.01
2018-11-26T05:30:14.069Z,93.05
2018-11-26T05:32:43.752Z,94.41
2018-11-26T05:35:13.231Z,94.49
2018-11-26T05:37:42.722Z,94.56
2018-11-26T05:40:13.725Z,93.78
2018-11-26T05:42:43.291Z,92.93
2018-11-26T05:45:14.537Z,92.89
2018-11-26T05:47:43.612Z,93.47
2018-11-26T05:50:16.055Z,92.63
2018-11-26T05:52:45.730Z,93.18
2018-11-26T05:55:16.697Z,92.90
2018-11-26T05:57:46.387Z,91.81
2018-11-26T06:00:44.239Z,90.96
2018-11-26T06:03:13.760Z,89.66
2018-11-26T06:05:42.703Z,90.40
2018-11-26T06:08:11.353Z,90.44
2018-11-26T06:10:41.184Z,90.67
2018-11-26T06:13:09.831Z,91.03
2018-11-26T06:15:39.230Z,91.63
2018-11-26T06:18:08.281Z,91.96
2018-11-26T06:20:37.452Z,91.81
2018-11-26T06:23:06.994Z,92.58
2018-11-26T06:25:35.816Z,92.58
2018-11-26T06:28:05.410Z,93.40
2018-11-26T06:30:34.932Z,93.39
2018-11-26T06:33:04.424Z,93.36
2018-11-26T06:35:33.875Z,93.69
2018-11-26T06:38:03.582Z,93.07
2018-11-26T06:40:32.668Z,92.17
2018-11-26T06:43:05.234Z,91.46
2018-11-26T06:45:34.761Z,91.25
2018-11-26T06:48:04.588Z,90.99
2018-11-26T06:50:34.684Z,90.82
2018-11-26T06:53:03.766Z,90.22
2018-11-26T06:55:32.957Z,89.73
2018-11-26T06:58:06.566Z,89.54
2018-11-26T07:00:36.222Z,89.92
2018-11-26T07:03:05.923Z,90.81
2018-11-26T07:05:35.655Z,89.82
2018-11-26T07:08:04.797Z,89.24
2018-11-26T07:10:34.925Z,89.48
2018-11-26T07:13:03.940Z,89.98
2018-11-26T07:15:32.951Z,90.22
2018-11-26T07:18:02.108Z,90.06
2018-11-26T07:20:31.598Z,90.06
2018-11-26T07:23:00.602Z,90.10
2018-11-26T07:25:30.094Z,90.21
2018-11-26T07:27:59.167Z,90.50
2018-11-26T07:30:29.841Z,90.30
2018-11-26T07:33:01.777Z,90.63
2018-11-26T07:35:32.385Z,90.14
2018-11-26T07:38:01.434Z,89.78
2018-11-26T07:40:30.778Z,89.92
2018-11-26T07:43:10.421Z,89.25
2018-11-26T07:45:39.963Z,89.36
2018-11-26T07:48:10.187Z,89.69
2018-11-26T07:50:39.235Z,89.17
2018-11-26T07:53:09.547Z,89.32
2018-11-26T07:55:39.577Z,88.42
2018-11-26T07:58:08.612Z,88.71
2018-11-26T08:00:38.582Z,88.32
2018-11-26T08:03:07.865Z,87.40
2018-11-26T08:05:36.902Z,88.06
2018-11-26T08:08:06.054Z,86.99
2018-11-26T08:10:35.458Z,87.78
2018-11-26T08:13:04.539Z,86.79
2018-11-26T08:15:33.579Z,86.99
2018-11-26T08:18:07.179Z,86.27
2018-11-26T08:20:35.882Z,85.14
2018-11-26T08:23:05.137Z,84.83
2018-11-26T08:25:33.907Z,84.11
2018-11-26T08:28:02.886Z,83.85
2018-11-26T08:30:31.963Z,82.42
2018-11-26T08:33:01.869Z,82.26
2018-11-26T08:35:31.863Z,80.72
2018-11-26T08:38:18.561Z,81.22
2018-11-26T08:41:05.171Z,80.83
2018-11-26T08:43:35.137Z,81.11
2018-11-26T08:46:10.307Z,82.17
2018-11-26T08:48:57.670Z,82.51
2018-11-26T08:51:27.103Z,82.53
2018-11-26T08:53:55.811Z,82.78
2018-11-26T08:56:24.575Z,81.89
2018-11-26T08:58:54.044Z,80.74
2018-11-26T09:01:42.736Z,79.71
2018-11-26T09:04:24.015Z,80.57
2018-11-26T09:06:53.806Z,80.89
2018-11-26T09:09:23.282Z,78.99
2018-11-26T09:11:52.373Z,78.46
2018-11-26T09:14:21.472Z,78.63
2018-11-26T09:16:50.919Z,78.09
2018-11-26T09:19:20.559Z,78.77
2018-11-26T09:21:49.341Z,78.90
2018-11-26T09:24:18.442Z,78.97
2018-11-26T09:26:47.469Z,79.19
2018-11-26T09:29:16.532Z,80.04
2018-11-26T09:31:45.989Z,80.38
2018-11-26T09:34:15.706Z,79.81
2018-11-26T09:36:45.191Z,79.28
2018-11-26T09:39:14.369Z,79.71
2018-11-26T09:41:43.643Z,79.53
2018-11-26T09:44:13.057Z,79.38
2018-11-26T09:46:42.491Z,78.96
2018-11-26T09:49:11.547Z,79.62
2018-11-26T09:51:42.231Z,79.52
2018-11-26T09:54:10.670Z,79.51
2018-11-26T09:56:39.370Z,79.76
2018-11-26T09:59:08.442Z,78.75
2018-11-26T10:01:37.473Z,78.57
2018-11-26T10:04:06.819Z,78.57
2018-11-26T10:06:37.137Z,78.94
2018-11-26T10:09:09.369Z,77.67
2018-11-26T10:11:38.418Z,76.51
2018-11-26T10:14:08.663Z,75.52
2018-11-26T10:16:38.057Z,76.19
2018-11-26T10:19:06.746Z,76.53
2018-11-26T10:21:36.252Z,77.44
2018-11-26T10:24:06.557Z,77.26
2018-11-26T10:26:37.310Z,75.58
2018-11-26T10:29:06.022Z,74.59
2018-11-26T10:31:35.970Z,73.73
2018-11-26T10:34:05.051Z,74.54
2018-11-26T10:36:34.674Z,75.40
2018-11-26T10:39:04.605Z,75.62
2018-11-26T10:41:34.676Z,75.62
2018-11-26T10:44:03.777Z,74.96
2018-11-26T10:46:32.490Z,74.94
2018-11-26T10:49:01.545Z,74.50
2018-11-26T10:51:30.765Z,74.31
2018-11-26T10:54:00.220Z,73.48
2018-11-26T10:56:30.243Z,71.90
2018-11-26T10:58:59.965Z,70.70
2018-11-26T11:01:47.628Z,70.73
2018-11-26T11:04:16.727Z,70.54
2018-11-26T11:06:47.890Z,69.75
2018-11-26T11:09:22.834Z,68.96
2018-11-26T11:11:52.484Z,69.15
2018-11-26T11:14:21.176Z,70.25
2018-11-26T11:16:51.783Z,72.17
2018-11-26T11:19:21.232Z,73.45
2018-11-26T11:21:50.487Z,73.56
2018-11-26T11:24:20.246Z,74.81
2018-11-26T11:26:49.318Z,77.38
2018-11-26T11:29:18.712Z,77.62
2018-11-26T11:31:47.413Z,78.27
2018-11-26T11:34:16.157Z,77.50
2018-11-26T11:36:45.261Z,77.71
2018-11-26T11:39:13.958Z,77.66
2018-11-26T11:41:43.033Z,77.97
2018-11-26T11:44:12.013Z,78.57
2018-11-26T11:46:40.734Z,77.02
2018-11-26T11:49:09.414Z,76.27
2018-11-26T11:51:38.128Z,75.73
2018-11-26T11:54:07.078Z,75.79
2018-11-26T11:56:36.191Z,73.37
2018-11-26T11:59:05.658Z,72.97
2018-11-26T12:01:34.676Z,72.23
2018-11-26T12:04:04.289Z,70.83
2018-11-26T12:06:33.375Z,72.21
2018-11-26T12:09:03.991Z,74.08
2018-11-26T12:11:33.611Z,73.62
2018-11-26T12:14:02.682Z,75.26
2018-11-26T12:16:31.741Z,75.40
2018-11-26T12:19:00.783Z,74.86
2018-11-26T12:21:29.790Z,74.67
2018-11-26T12:23:58.777Z,76.40
2018-11-26T12:26:27.878Z,74.49
2018-11-26T12:28:56.577Z,75.82
2018-11-26T12:31:25.967Z,74.52
2018-11-26T12:33:54.944Z,73.68
2018-11-26T12:36:24.366Z,72.95
2018-11-26T12:38:53.444Z,73.13
2018-11-26T12:41:22.451Z,72.95
2018-11-26T12:43:51.154Z,73.42
2018-11-26T12:46:20.235Z,73.51
2018-11-26T12:48:49.275Z,73.31
2018-11-26T12:51:18.678Z,73.97
2018-11-26T12:53:47.646Z,73.58
2018-11-26T12:56:17.353Z,73.58
2018-11-26T12:58:47.063Z,69.86
2018-11-26T13:01:16.469Z,70.67
2018-11-26T13:03:47.518Z,71.80
2018-11-26T13:06:18.286Z,71.06
2018-11-26T13:08:47.922Z,71.44
2018-11-26T13:11:18.191Z,72.99
2018-11-26T13:13:46.960Z,73.40
2018-11-26T13:16:15.915Z,72.19
2018-11-26T13:18:44.616Z,73.44
2018-11-26T13:21:13.782Z,74.43
2018-11-26T13:23:43.468Z,73.38
2018-11-26T13:26:12.171Z,73.33
2018-11-26T13:28:40.912Z,73.27
2018-11-26T13:31:09.641Z,74.11
2018-11-26T13:33:38.361Z,74.21
2018-11-26T13:36:07.988Z,74.73
2018-11-26T13:38:37.063Z,73.75
2018-11-26T13:41:05.768Z,73.52
2018-11-26T13:43:34.868Z,73.63
2018-11-26T13:46:03.938Z,73.82
2018-11-26T13:48:32.779Z,74.09
2018-11-26T13:51:01.698Z,73.94
2018-11-26T13:53:30.706Z,74.05
2018-11-26T13:55:59.712Z,75.06
2018-11-26T13:58:28.829Z,76.01
2018-11-26T14:00:58.671Z,75.49
2018-11-26T14:03:28.047Z,75.97
2018-11-26T14:05:57.760Z,75.97
2018-11-26T14:08:28.550Z,76.56
2018-11-26T14:10:58.155Z,77.25
2018-11-26T14:13:27.192Z,77.44
2018-11-26T14:15:55.922Z,77.18
2018-11-26T14:18:24.936Z,77.10
2018-11-26T14:20:54.072Z,76.23
2018-11-26T14:23:28.245Z,76.55
2018-11-26T14:25:58.314Z,77.31
2018-11-26T14:28:27.897Z,77.24
2018-11-26T14:30:58.336Z,77.33
2018-11-26T14:33:27.673Z,76.99
2018-11-26T14:35:56.734Z,77.30
2018-11-26T14:38:26.135Z,77.73
2018-11-26T14:40:55.442Z,77.76
2018-11-26T14:43:24.423Z,77.60
2018-11-26T14:45:54.031Z,77.49
2018-11-26T14:48:24.305Z,78.41
2018-11-26T14:50:53.923Z,77.31
2018-11-26T14:53:23.264Z,77.57
2018-11-26T14:55:52.199Z,78.74
2018-11-26T14:58:21.560Z,78.86
2018-11-26T15:00:50.879Z,79.29
2018-11-26T15:03:19.951Z,79.44
2018-11-26T15:05:49.823Z,79.12
2018-11-26T15:08:19.995Z,79.08
2018-11-26T15:10:50.824Z,78.38
2018-11-26T15:13:20.545Z,78.81
2018-11-26T15:15:51.018Z,78.93
2018-11-26T15:18:20.433Z,78.30
2018-11-26T15:20:50.165Z,77.99
2018-11-26T15:23:19.844Z,77.90
2018-11-26T15:25:49.591Z,77.50
2018-11-26T15:28:19.298Z,77.89
2018-11-26T15:30:49.141Z,77.27
2018-11-26T15:33:18.432Z,76.96
2018-11-26T15:35:47.120Z,77.57
2018-11-26T15:38:16.420Z,77.98
2018-11-26T15:40:46.112Z,76.51
2018-11-26T15:43:16.286Z,77.34
2018-11-26T15:45:46.138Z,77.45
2018-11-26T15:48:15.756Z,76.66
2018-11-26T15:50:45.112Z,77.33
2018-11-26T15:53:14.454Z,77.86
2018-11-26T15:55:43.856Z,77.05
2018-11-26T15:58:13.170Z,77.74
2018-11-26T16:00:42.715Z,78.01
2018-11-26T16:03:12.436Z,77.17
2018-11-26T16:05:42.825Z,77.08
2018-11-26T16:08:14.143Z,76.86
2018-11-26T16:10:43.887Z,76.50
2018-11-26T16:13:14.462Z,76.46
2018-11-26T16:15:44.292Z,76.99
2018-11-26T16:18:16.245Z,76.78
2018-11-26T16:20:45.606Z,77.10
2018-11-26T16:23:14.336Z,77.42
2018-11-26T16:25:44.347Z,77.62
2018-11-26T16:28:15.348Z,77.83
2018-11-26T16:30:44.042Z,77.55
2018-11-26T16:33:13.075Z,77.00
2018-11-26T16:35:42.229Z,77.99
2018-11-26T16:38:11.759Z,77.39
2018-11-26T16:40:41.495Z,77.17
2018-11-26T16:43:10.373Z,77.78
2018-11-26T16:45:39.460Z,77.89
2018-11-26T16:48:10.624Z,77.44
2018-11-26T16:50:39.343Z,77.72
2018-11-26T16:53:08.284Z,77.86
2018-11-26T16:55:37.039Z,79.03
2018-11-26T16:58:06.244Z,77.91
2018-11-26T17:00:35.369Z,78.78
2018-11-26T17:03:05.852Z,78.67
2018-11-26T17:05:39.262Z,77.99
2018-11-26T17:08:15.740Z,78.64
2018-11-26T17:10:45.091Z,78.20
2018-11-26T17:13:14.610Z,78.90
2018-11-26T17:15:43.474Z,78.71
2018-11-26T17:18:12.193Z,78.06
2018-11-26T17:20:40.922Z,78.02
2018-11-26T17:23:09.934Z,78.28
2018-11-26T17:25:39.108Z,78.72
2018-11-26T17:28:08.441Z,78.61
2018-11-26T17:30:38.247Z,77.36
2018-11-26T17:33:09.767Z,77.50
2018-11-26T17:35:38.519Z,77.26
2018-11-26T17:38:08.571Z,78.03
2018-11-26T17:40:40.035Z,77.30
2018-11-26T17:43:10.353Z,77.27
2018-11-26T17:45:39.086Z,77.62
2018-11-26T17:48:08.691Z,77.47
2018-11-26T17:50:41.505Z,77.09
2018-11-26T17:53:21.065Z,77.27
2018-11-26T17:55:54.031Z,78.28
2018-11-26T17:58:32.394Z,78.29
2018-11-26T18:01:28.221Z,78.35
2018-11-26T18:03:57.823Z,78.62
2018-11-26T18:06:26.919Z,79.10
2018-11-26T18:08:55.614Z,79.42
2018-11-26T18:11:24.314Z,79.39
2018-11-26T18:13:53.387Z,78.51
2018-11-26T18:16:23.365Z,78.48
2018-11-26T18:18:52.675Z,78.48
2018-11-26T18:21:22.119Z,79.02
2018-11-26T18:23:51.507Z,78.60
2018-11-26T18:26:20.975Z,79.14
2018-11-26T18:28:50.516Z,78.06
2018-11-26T18:31:19.519Z,79.62
2018-11-26T18:33:49.203Z,78.47
2018-11-26T18:36:18.235Z,78.26
2018-11-26T18:38:47.715Z,78.66
2018-11-26T18:41:17.015Z,78.66
2018-11-26T18:43:45.950Z,79.76
2018-11-26T18:46:14.967Z,79.33
2018-11-26T18:48:43.757Z,79.05
2018-11-26T18:51:12.895Z,79.06
2018-11-26T18:53:42.976Z,78.81
2018-11-26T18:56:12.127Z,78.84
2018-11-26T18:58:41.179Z,78.75
2018-11-26T19:01:10.932Z,78.83
2018-11-26T19:03:40.019Z,78.38
2018-11-26T19:06:09.180Z,78.59
2018-11-26T19:08:38.592Z,78.26
2018-11-26T19:11:13.455Z,78.69
2018-11-26T19:14:02.872Z,79.73
2018-11-26T19:16:40.218Z,78.29
2018-11-26T19:19:12.031Z,77.79
2018-11-26T19:21:43.339Z,78.36
2018-11-26T19:24:12.402Z,78.50
2018-11-26T19:26:41.490Z,79.11
2018-11-26T19:29:10.540Z,79.02
2018-11-26T19:31:39.258Z,78.97
2018-11-26T19:34:08.844Z,79.45
2018-11-26T19:36:37.551Z,79.55
2018-11-26T19:39:09.355Z,78.80
2018-11-26T19:41:39.437Z,79.02
2018-11-26T19:44:08.498Z,79.72
2018-11-26T19:46:37.323Z,79.53
2018-11-26T19:49:06.204Z,79.01
2018-11-26T19:51:35.625Z,79.15
2018-11-26T19:54:09.211Z,78.71
2018-11-26T19:56:38.292Z,79.34
2018-11-26T19:59:07.851Z,79.96
2018-11-26T20:01:37.505Z,79.94
2018-11-26T20:04:30.972Z,78.91
2018-11-26T20:07:00.600Z,79.03
2018-11-26T20:09:30.611Z,79.08
2018-11-26T20:11:59.336Z,79.07
2018-11-26T20:14:28.700Z,77.84
2018-11-26T20:16:57.775Z,77.84
2018-11-26T20:19:27.780Z,78.16
2018-11-26T20:21:57.049Z,78.28
2018-11-26T20:24:26.200Z,78.65
2018-11-26T20:26:56.185Z,78.61
2018-11-26T20:29:26.197Z,78.67
2018-11-26T20:31:55.241Z,79.21
2018-11-26T20:34:24.903Z,79.38
2018-11-26T20:36:54.632Z,79.00
2018-11-26T20:39:25.905Z,79.01
2018-11-26T20:41:56.577Z,79.04
2018-11-26T20:44:27.555Z,78.80
2018-11-26T20:46:56.643Z,79.65
2018-11-26T20:49:26.655Z,78.89
2018-11-26T20:51:58.338Z,78.87
2018-11-26T20:54:31.212Z,79.53
2018-11-26T20:57:00.610Z,79.77
2018-11-26T20:59:40.834Z,79.71
2018-11-26T21:02:10.579Z,79.67
2018-11-26T21:04:39.296Z,79.79
2018-11-26T21:07:08.031Z,79.54
2018-11-26T21:09:37.502Z,79.87
2018-11-26T21:12:06.252Z,79.75
2018-11-26T21:14:35.510Z,79.62
2018-11-26T21:17:05.062Z,79.91
2018-11-26T21:19:42.914Z,79.27
2018-11-26T21:22:12.150Z,79.58
2018-11-26T21:24:41.552Z,79.44
2018-11-26T21:27:12.467Z,79.90
2018-11-26T21:29:41.635Z,79.68
2018-11-26T21:32:10.695Z,80.05
2018-11-26T21:34:40.199Z,79.01
2018-11-26T21:37:10.948Z,79.52
2018-11-26T21:39:40.947Z,79.73
2018-11-26T21:42:09.672Z,79.87
2018-11-26T21:44:39.103Z,79.25
2018-11-26T21:47:07.836Z,80.23
2018-11-26T21:49:42.044Z,79.46
2018-11-26T21:52:12.244Z,79.64
2018-11-26T21:54:42.238Z,78.75
2018-11-26T21:57:11.355Z,79.17
2018-11-26T21:59:45.477Z,79.72
2018-11-26T22:02:14.663Z,78.87
2018-11-26T22:04:44.906Z,78.47
2018-11-26T22:07:16.270Z,78.21
2018-11-26T22:09:45.342Z,77.63
2018-11-26T22:12:16.002Z,77.21
2018-11-26T22:14:45.039Z,77.71
2018-11-26T22:17:14.292Z,77.91
2018-11-26T22:19:43.335Z,78.02
2018-11-26T22:22:12.079Z,77.35
2018-11-26T22:24:40.814Z,77.66
2018-11-26T22:27:10.390Z,77.16
2018-11-26T22:29:39.115Z,77.79
2018-11-26T22:32:08.207Z,77.45
2018-11-26T22:34:36.919Z,77.98
2018-11-26T22:37:06.404Z,77.52
2018-11-26T22:39:35.383Z,76.90
2018-11-26T22:42:04.654Z,76.37
2018-11-26T22:44:33.679Z,76.53
2018-11-26T22:47:03.007Z,76.01
2018-11-26T22:49:32.084Z,76.11
2018-11-26T22:52:01.434Z,75.42
2018-11-26T22:54:32.239Z,74.86
2018-11-26T22:57:07.217Z,75.15
2018-11-26T22:59:36.802Z,75.11
2018-11-26T23:02:06.223Z,74.61
2018-11-26T23:04:36.608Z,74.71
2018-11-26T23:07:05.691Z,74.98
2018-11-26T23:09:37.051Z,74.56
2018-11-26T23:12:05.756Z,75.07
2018-11-26T23:14:35.353Z,75.65
2018-11-26T23:17:05.771Z,75.78
2018-11-26T23:19:35.737Z,76.07
2018-11-26T23:22:05.326Z,75.31
2018-11-26T23:24:34.583Z,75.58
2018-11-26T23:27:04.490Z,75.73
2018-11-26T23:29:34.968Z,75.49
2018-11-26T23:32:04.334Z,75.45
2018-11-26T23:34:34.044Z,75.40
2018-11-26T23:37:03.175Z,75.86
2018-11-26T23:39:31.987Z,76.09
2018-11-26T23:42:00.977Z,75.76
2018-11-26T23:44:29.777Z,75.71
2018-11-26T23:46:59.267Z,76.39
2018-11-26T23:49:28.002Z,75.24
2018-11-26T23:51:56.705Z,74.85
2018-11-26T23:54:25.757Z,75.17
2018-11-26T23:56:54.840Z,75.23
2018-11-26T23:59:23.838Z,75.01
